^^
Datos históricos de la estación: Murcia-Puente Tocinos
Diario Informe para Agosto 29, 2019 Unidades:  Ingés    Métrico   Ambas
Diario Semanal Mensual Anual
  Máxima: Mínima: Promedio:
Temperatura: 73.8 °F 62.4 °F 68 °F
Punto de rocio: 60.6 °F 43 °F 53.4 °F
Humedad: 86% 40% 62%
Velocidad viento: 11.8mph 0mph 5.2mph
Racha viento: 25mph - -
Viento- - Este
Presión: 30.2 in 30 in -
Precipitación: 0 in    
 
 
Tabla de datos para Agosto 29, 2019
Hora Temperatura Punto de rocio Presión Viento Velocidad viento Racha viento Humedad Intensidad lluvia(por hora) Nubes
00:04 65.7 °F 60.4 °F 30 in NE 6.2 mph 11 mph 83.3% 0 in
00:09 65.7 °F 60.6 °F 30 in NE 6.1 mph 9 mph 84% 0 in
00:14 65.7 °F 60.6 °F 30 in NNE 5.9 mph 8.1 mph 84% 0 in
00:19 65.7 °F 60.6 °F 30 in NNE 5.5 mph 8.1 mph 84% 0 in
00:24 65.5 °F 60.4 °F 30 in NNE 4.7 mph 6 mph 84% 0 in
00:29 65.5 °F 60.4 °F 30 in NNE 4.3 mph 6 mph 84% 0 in
00:34 65.5 °F 60.4 °F 30 in NNE 3.6 mph 6.2 mph 84% 0 in
00:39 65.5 °F 60.4 °F 30 in NNE 3.4 mph 6 mph 84% 0 in
00:44 65.5 °F 60.4 °F 30 in NNE 3.1 mph 6 mph 84% 0 in
00:49 65.5 °F 60.4 °F 30 in NNE 3 mph 5.2 mph 84% 0 in
00:54 65.5 °F 60.4 °F 30 in NNE 2.9 mph 5 mph 84% 0 in
00:59 65.5 °F 60.4 °F 30 in NE 2.7 mph 5.9 mph 83.9% 0 in
01:04 65.5 °F 60.3 °F 30 in NE 2.4 mph 6 mph 83% 0 in
01:09 65.5 °F 60.3 °F 30 in NE 2.9 mph 6 mph 83% 0 in
01:14 65.5 °F 60.3 °F 30 in NE 3.6 mph 6 mph 83% 0 in
01:19 65.5 °F 60.3 °F 30 in NE 3.6 mph 6 mph 83% 0 in
01:24 65.5 °F 60.3 °F 30 in Este 3.6 mph 5.8 mph 83% 0 in
01:29 65.7 °F 60.4 °F 30 in ENE 3.2 mph 6 mph 83% 0 in
01:34 65.7 °F 60.1 °F 30 in NNE 2.4 mph 5 mph 82.1% 0 in
01:39 65.7 °F 60.1 °F 30 in NNE 2.2 mph 5 mph 82% 0 in
01:44 65.7 °F 60.1 °F 30 in North 2 mph 5 mph 82% 0 in
01:49 65.7 °F 60.1 °F 30 in North 1.9 mph 3.6 mph 82% 0 in
01:54 65.7 °F 60.1 °F 30 in NNO 1.8 mph 4 mph 82% 0 in
01:59 65.7 °F 59.9 °F 30 in NNO 1.8 mph 5 mph 82% 0 in
02:04 65.5 °F 60.1 °F 30 in NNO 1.8 mph 5 mph 82.8% 0 in
02:09 65.5 °F 60.3 °F 30 in NNO 1.9 mph 5 mph 83% 0 in
02:14 65.5 °F 60.3 °F 30 in NNO 2 mph 4.6 mph 83% 0 in
02:19 65.5 °F 60.3 °F 30 in NNO 1.8 mph 5 mph 83% 0 in
02:24 65.5 °F 60.3 °F 30 in NNO 1.4 mph 3.5 mph 83% 0 in
02:29 65.5 °F 60.3 °F 30 in NNO 0.9 mph 3 mph 83% 0 in
02:34 65.5 °F 60.3 °F 30 in Calm   2.4 mph 83% 0 in
02:39 65.5 °F 60.3 °F 30 in Calm   2.4 mph 83% 0 in
02:44 65.5 °F 59.9 °F 30 in Calm   3.6 mph 82.2% 0 in
02:49 65.5 °F 59.9 °F 30 in NNO 0.5 mph 4 mph 82% 0 in
02:54 65.7 °F 59.9 °F 30 in NNO 1.4 mph 3 mph 82% 0 in
02:59 65.7 °F 60.1 °F 30 in NNO 0.8 mph 2.3 mph 82% 0 in
03:04 65.7 °F 59.7 °F 30 in Calm   3.6 mph 81.3% 0 in
03:09 65.7 °F 59.7 °F 30 in Oeste 0.7 mph 4 mph 81% 0 in
03:14 65.7 °F 59.7 °F 30 in Oeste 1.8 mph 4.6 mph 81% 0 in
03:19 65.7 °F 59.4 °F 30 in Oeste 1.9 mph 5 mph 80.1% 0 in
03:24 65.7 °F 59.5 °F 30 in SSO 2 mph 5 mph 80.8% 0 in
03:29 65.7 °F 59.9 °F 30 in Sur 2.2 mph 5 mph 81.6% 0 in
03:34 65.7 °F 59.9 °F 30 in Sur 2.4 mph 5 mph 81.6% 0 in
03:39 65.5 °F 59.5 °F 30 in Sur 1.6 mph 3 mph 81.3% 0 in
03:44 65.1 °F 59.5 °F 30 in Calm     82% 0 in
03:49 65.1 °F 59.5 °F 30 in Calm     82% 0 in
03:54 64.9 °F 59.7 °F 30 in Calm     82.9% 0 in
03:59 64.9 °F 59.7 °F 30 in Calm   4.7 mph 83% 0 in
04:04 64.9 °F 59.7 °F 30 in Calm   5 mph 83.2% 0 in
04:09 64.9 °F 60.1 °F 30 in Oeste 0.8 mph 5 mph 84% 0 in
04:14 64.9 °F 60.1 °F 30 in OSO 2.4 mph 5.2 mph 84% 0 in
04:19 64.9 °F 60.1 °F 30 in SO 2.6 mph 5.9 mph 84% 0 in
04:24 64.9 °F 60.1 °F 30 in OSO 2.9 mph 6.9 mph 84% 0 in
04:29 64.9 °F 60.1 °F 30 in OSO 3.2 mph 7 mph 84% 0 in
04:34 64.9 °F 60.1 °F 30 in SO 3.6 mph 6.9 mph 84% 0 in
04:39 64.9 °F 59.9 °F 30 in SSO 3.7 mph 7 mph 84% 0 in
04:44 64.8 °F 59.7 °F 30 in SSO 4 mph 7 mph 84% 0 in
04:49 64.8 °F 59.7 °F 30 in SO 3.9 mph 6.9 mph 84% 0 in
04:54 64.8 °F 59.7 °F 30 in OSO 3.6 mph 7 mph 84% 0 in
04:59 64.8 °F 59.7 °F 30 in OSO 3 mph 5 mph 84% 0 in
05:04 64.8 °F 59.7 °F 30 in OSO 2 mph 4.3 mph 84% 0 in
05:09 64.8 °F 59.7 °F 30 in SO 1.9 mph 5 mph 84% 0 in
05:14 64.8 °F 59.7 °F 30 in SO 1.8 mph 4.6 mph 84% 0 in
05:19 64.8 °F 59.7 °F 30 in OSO 1.8 mph 5 mph 84% 0 in
05:24 64.6 °F 59.5 °F 30 in OSO 1.8 mph 5 mph 84% 0 in
05:29 64.6 °F 59.5 °F 30 in OSO 1.9 mph 5 mph 84% 0 in
05:34 64.6 °F 59.5 °F 30 in OSO 2 mph 5 mph 84% 0 in
05:39 64.6 °F 59.5 °F 30 in SO 2.2 mph 5.2 mph 84% 0 in
05:44 64.4 °F 59.5 °F 30 in Sur 2.4 mph 5.2 mph 84% 0 in
05:49 64.2 °F 59.5 °F 30 in SSE 2.7 mph 5 mph 85% 0 in
05:54 64 °F 59.5 °F 30 in SSE 3.1 mph 5 mph 85% 0 in
05:59 64 °F 59.4 °F 30 in Sur 3.1 mph 5 mph 85% 0 in
06:04 64 °F 59.4 °F 30 in Sur 3.1 mph 5 mph 85% 0 in
06:09 64 °F 59.4 °F 30 in Sur 2.9 mph 5 mph 85% 0 in
06:14 64 °F 59.4 °F 30 in SSE 2.4 mph 5 mph 85% 0 in
06:19 64 °F 59.4 °F 30 in Sur 2.4 mph 5 mph 84.7% 0 in
06:24 63.9 °F 59 °F 30 in SSE 2.4 mph 3.6 mph 84% 0 in
06:29 63.9 °F 58.8 °F 30 in SSE 2.1 mph 4 mph 84% 0 in
06:34 63.7 °F 58.6 °F 30 in SSE 1.4 mph 3 mph 84% 0 in
06:39 63.3 °F 58.5 °F 30 in SSE 0.9 mph 5.4 mph 84% 0 in
06:44 63.1 °F 58.3 °F 30 in Calm   6 mph 84.4% 0 in
06:49 63 °F 58.3 °F 30 in ESE 0.7 mph 5 mph 85% 0 in
06:54 62.8 °F 58.5 °F 30 in ESE 1.8 mph   85.8% 0 in
06:59 62.8 °F 58.5 °F 30 in ESE 1.1 mph   85.8% 0 in
07:04 62.8 °F 58.1 °F 30.1 in Calm     85% 0 in
07:09 62.4 °F 57.9 °F 30.1 in Calm     85% 0 in
07:14 62.4 °F 57.7 °F 30.1 in Calm   1.4 mph 85% 0 in
07:19 62.4 °F 57.9 °F 30.1 in Calm   1 mph 85.5% 0 in
07:24 62.4 °F 58.3 °F 30.1 in Calm     86% 0 in
07:29 62.4 °F 58.3 °F 30.1 in Calm     86% 0 in
07:34 62.8 °F 58.5 °F 30.1 in Calm   3.1 mph 86% 0 in
07:39 63 °F 58.8 °F 30.1 in Calm   4 mph 86% 0 in
07:44 63.5 °F 58.8 °F 30.1 in Calm   4 mph 85.1% 0 in
07:49 63.7 °F 58.8 °F 30.1 in ENE 0.6 mph 4 mph 84.1% 0 in
07:54 63.9 °F 58.8 °F 30.1 in ENE 1.8 mph 4.3 mph 83.3% 0 in
07:59 64 °F 58.5 °F 30.1 in Este 1.8 mph 5 mph 82.2% 0 in
08:04 63.9 °F 58.3 °F 30.1 in ESE 1.8 mph 5.2 mph 82% 0 in
08:09 63.7 °F 58.3 °F 30.1 in ESE 2 mph 5 mph 82.8% 0 in
08:14 63.9 °F 58.5 °F 30.1 in Este 2.4 mph 5.2 mph 83% 0 in
08:19 64 °F 58.8 °F 30.1 in NE 2.5 mph 5.2 mph 83% 0 in
08:24 64.2 °F 59 °F 30.1 in NE 2.9 mph 5 mph 83% 0 in
08:29 64.8 °F 59 °F 30.1 in ENE 2.5 mph 5.2 mph 82.1% 0 in
08:34 64.9 °F 59.2 °F 30.1 in NE 2 mph 5 mph 82% 0 in
08:39 65.5 °F 59.5 °F 30.1 in NNE 2 mph 4.6 mph 81.4% 0 in
08:44 65.8 °F 59.4 °F 30.1 in North 2 mph 5 mph 79.8% 0 in
08:49 66.2 °F 59 °F 30.1 in NE 1.9 mph 5 mph 77.5% 0 in
08:54 66.4 °F 58.1 °F 30.1 in NE 1.8 mph 5.8 mph 75% 0 in
08:59 66 °F 57.2 °F 30.1 in NE 2.5 mph 6.9 mph 73.2% 0 in
09:04 65.7 °F 56.7 °F 30.1 in NE 3.6 mph 8.1 mph 72.6% 0 in
09:09 65.7 °F 55.9 °F 30.1 in ENE 4.2 mph 10.4 mph 70.7% 0 in
09:14 65.8 °F 55.8 °F 30.1 in NE 5.2 mph 11.5 mph 70% 0 in
09:19 66 °F 55.4 °F 30.1 in NE 5.3 mph 12 mph 68.6% 0 in
09:24 66 °F 54.3 °F 30.1 in NE 5.4 mph 11.2 mph 66% 0 in
09:29 66.2 °F 53.4 °F 30.1 in NE 5.6 mph 13 mph 63.2% 0 in
09:34 66.6 °F 52.9 °F 30.1 in NE 5.9 mph 13 mph 61.5% 0 in
09:39 66.7 °F 53.4 °F 30.1 in NE 6 mph 13 mph 62.4% 0 in
09:44 66.9 °F 53.1 °F 30.1 in NE 6.2 mph 12.7 mph 61.1% 0 in
09:49 67.1 °F 52 °F 30.1 in NE 6.5 mph 13 mph 58.5% 0 in
09:54 67.6 °F 51.8 °F 30.1 in NE 6.9 mph 12 mph 56.9% 0 in
09:59 68 °F 51.6 °F 30.1 in NE 6.7 mph 11.5 mph 55.7% 0 in
10:04 68.4 °F 51.6 °F 30.1 in NE 6.4 mph 12 mph 55.1% 0 in
10:09 68.4 °F 52.2 °F 30.1 in Este 6.3 mph 12 mph 56% 0 in
10:14 68.7 °F 52 °F 30.1 in Este 6.2 mph 10 mph 55.4% 0 in
10:19 68.7 °F 51.8 °F 30.1 in ESE 6.1 mph 10.4 mph 54.9% 0 in
10:24 68.7 °F 51.6 °F 30.1 in Este 5.9 mph 11.5 mph 54.5% 0 in
10:29 68.9 °F 51.1 °F 30.1 in NE 6.1 mph 12 mph 53.1% 0 in
10:34 68.7 °F 50.9 °F 30.1 in NE 6.4 mph 13.8 mph 53% 0 in
10:39 68.7 °F 51.3 °F 30.1 in ENE 6.3 mph 14 mph 53.5% 0 in
10:44 69.3 °F 51.6 °F 30.1 in NE 6.2 mph 13 mph 53.2% 0 in
10:49 69.6 °F 51.4 °F 30.1 in ENE 6.1 mph 13 mph 52.7% 0 in
10:54 69.4 °F 51.1 °F 30.1 in NE 5.9 mph 11.8 mph 52% 0 in
10:59 69.4 °F 51.4 °F 30.1 in NE 6.1 mph 15.6 mph 52.7% 0 in
11:04 69.6 °F 51.4 °F 30.1 in NE 6.4 mph 16 mph 52.5% 0 in
11:09 69.6 °F 51.3 °F 30.1 in NE 6.8 mph 12.7 mph 52.2% 0 in
11:14 69.8 °F 51.4 °F 30.1 in ENE 7.4 mph 13.8 mph 52.4% 0 in
11:19 69.8 °F 51.1 °F 30.1 in ENE 7 mph 14 mph 51.7% 0 in
11:24 69.8 °F 51.8 °F 30.1 in NE 6.4 mph 13 mph 52.7% 0 in
11:29 70.2 °F 52 °F 30.1 in NE 6.4 mph 15.2 mph 52.5% 0 in
11:34 70 °F 51.4 °F 30.1 in NE 6.4 mph 15 mph 52% 0 in
11:39 69.6 °F 51.3 °F 30.1 in ENE 6.8 mph 12 mph 52% 0 in
11:44 69.8 °F 51.4 °F 30.1 in NE 7.6 mph 12 mph 52% 0 in
11:49 70.3 °F 51.4 °F 30.1 in ENE 6.2 mph 9.2 mph 51% 0 in
11:54 70.9 °F 51.3 °F 30.1 in NNE 4 mph 9.2 mph 49.9% 0 in
11:59 70.9 °F 51.3 °F 30.1 in NNE 4 mph 10.4 mph 49.8% 0 in
12:04 71.1 °F 51.3 °F 30.1 in North 4 mph 10 mph 49.9% 0 in
12:09 71.4 °F 51.8 °F 30.1 in NNE 4 mph 9.2 mph 50% 0 in
12:14 71.8 °F 52 °F 30.1 in North 4 mph 9 mph 49.7% 0 in
12:19 71.4 °F 52 °F 30.1 in NE 4.5 mph 11.5 mph 50.3% 0 in
12:24 71.2 °F 52.7 °F 30.1 in ENE 5.4 mph 13 mph 51.9% 0 in
12:29 71.2 °F 52.7 °F 30.1 in NNE 5.8 mph 15 mph 51.9% 0 in
12:34 71.1 °F 52.5 °F 30.1 in NNE 6.4 mph 15 mph 52.1% 0 in
12:39 71.2 °F 52.7 °F 30.1 in ENE 6.6 mph 14 mph 51.8% 0 in
12:44 71.4 °F 52.5 °F 30.1 in ENE 6.9 mph 16.1 mph 51.3% 0 in
12:49 71.4 °F 52.7 °F 30.1 in ENE 6.9 mph 16 mph 51.5% 0 in
12:54 71.6 °F 52.9 °F 30.1 in NE 6.9 mph 16.1 mph 51.7% 0 in
12:59 72 °F 52.9 °F 30.1 in NE 7.6 mph 16 mph 51% 0 in
13:04 72.1 °F 52.9 °F 30.1 in ENE 8.7 mph 13 mph 50.8% 0 in
13:09 72.1 °F 52.5 °F 30.1 in NE 8.2 mph 13.8 mph 50.3% 0 in
13:14 71.8 °F 52.7 °F 30.1 in Este 7.4 mph 14 mph 50.8% 0 in
13:19 72.1 °F 52.5 °F 30.1 in NE 6.5 mph 10.4 mph 50.2% 0 in
13:24 72.3 °F 52.3 °F 30.1 in NE 4.7 mph 16.3 mph 49.5% 0 in
13:29 72 °F 52.2 °F 30.1 in NNE 6 mph 19 mph 49.8% 0 in
13:34 72 °F 52 °F 30.1 in ENE 8.1 mph 19 mph 49.4% 0 in
13:39 72.1 °F 52 °F 30.1 in NE 7.5 mph 15 mph 49% 0 in
13:44 72.1 °F 52 °F 30.1 in ENE 6.4 mph 15 mph 49.1% 0 in
13:49 72.3 °F 52 °F 30.1 in ENE 6.6 mph 14 mph 49% 0 in
13:54 72.3 °F 52.2 °F 30.1 in NE 6.9 mph 14 mph 49% 0 in
13:59 72.9 °F 52.2 °F 30.1 in NE 6.6 mph 12 mph 48.5% 0 in
14:04 73 °F 52.2 °F 30.1 in NE 6.2 mph 15 mph 48.1% 0 in
14:09 73.2 °F 52.2 °F 30.1 in NE 6.6 mph 15 mph 47.9% 0 in
14:14 73.4 °F 52.2 °F 30.1 in Este 7.4 mph 13 mph 47.5% 0 in
14:19 73.8 °F 52.2 °F 30.1 in ENE 7 mph 13 mph 46.8% 0 in
14:24 73.8 °F 52.2 °F 30.1 in NE 6.4 mph 15.2 mph 46.9% 0 in
14:29 73.8 °F 52 °F 30.1 in NE 6.8 mph 21.3 mph 46.5% 0 in
14:34 73.2 °F 51.4 °F 30.1 in NE 7.6 mph 21 mph 46.4% 0 in
14:39 73.4 °F 51.6 °F 30.1 in NE 8.8 mph 20.7 mph 46.7% 0 in
14:44 73.6 °F 51.3 °F 30.1 in ENE 10.7 mph 21 mph 45.5% 0 in
14:49 73 °F 51.1 °F 30.1 in NE 10.1 mph 20.4 mph 46.1% 0 in
14:54 72.7 °F 51.1 °F 30.1 in NE 9.2 mph 21 mph 46.6% 0 in
14:59 72.7 °F 51.3 °F 30.1 in NE 10.2 mph 21 mph 46.8% 0 in
15:04 72.5 °F 51.1 °F 30.1 in NE 11.8 mph 19 mph 47% 0 in
15:09 72.1 °F 50.9 °F 30.1 in NE 11.6 mph 21.3 mph 47% 0 in
15:14 72.3 °F 51.3 °F 30.1 in ENE 11.2 mph 22.3 mph 47.4% 0 in
15:19 72.1 °F 50.9 °F 30.1 in ENE 10.9 mph 22 mph 46.9% 0 in
15:24 72.1 °F 50.7 °F 30.1 in NE 10.2 mph 21.9 mph 47% 0 in
15:29 72.3 °F 50.7 °F 30.1 in NE 10.2 mph 22 mph 46.6% 0 in
15:34 72.1 °F 50.5 °F 30.1 in NE 10.2 mph 19 mph 46.5% 0 in
15:39 72 °F 50.5 °F 30.1 in NE 10.6 mph 19 mph 46.9% 0 in
15:44 71.8 °F 50.2 °F 30.1 in NE 11.2 mph 21.3 mph 46.5% 0 in
15:49 71.4 °F 50.2 °F 30.1 in NE 11.4 mph 21 mph 47.2% 0 in
15:54 72 °F 50.2 °F 30.1 in NE 11.8 mph 21.3 mph 46.4% 0 in
15:59 72 °F 49.8 °F 30.1 in ENE 11.6 mph 21 mph 45.9% 0 in
16:04 71.8 °F 49.5 °F 30.1 in NE 11.4 mph 21.5 mph 45.2% 0 in
16:09 72 °F 49.5 °F 30.1 in ENE 10.9 mph 22 mph 45.2% 0 in
16:14 72 °F 49.5 °F 30.1 in ENE 10.2 mph 24.6 mph 45.1% 0 in
16:19 72 °F 49.8 °F 30.1 in ENE 10 mph 25 mph 45.5% 0 in
16:24 72 °F 49.6 °F 30.1 in ENE 9.7 mph 20.7 mph 45.2% 0 in
16:29 71.8 °F 49.6 °F 30.1 in ENE 9.5 mph 21 mph 45.6% 0 in
16:34 71.4 °F 49.5 °F 30.1 in NE 9.2 mph 18 mph 45.8% 0 in
16:39 71.6 °F 49.5 °F 30.1 in NE 10.1 mph 19.7 mph 45.7% 0 in
16:44 71.2 °F 49.3 °F 30.1 in NE 11.4 mph 20 mph 45.8% 0 in
16:49 71.2 °F 49.3 °F 30.1 in NE 11.3 mph 19 mph 46% 0 in
16:54 71.4 °F 49.1 °F 30.1 in NE 11.2 mph 20.7 mph 45.2% 0 in
16:59 71.1 °F 48.7 °F 30.1 in NE 11.2 mph 21 mph 45.1% 0 in
17:04 70.9 °F 48.9 °F 30.1 in NE 11.2 mph 20 mph 45.6% 0 in
17:09 71.2 °F 48.6 °F 30.1 in ENE 10.6 mph 18 mph 44.5% 0 in
17:14 71.2 °F 48.2 °F 30.1 in NE 9.7 mph 20.7 mph 43.9% 0 in
17:19 71.6 °F 48 °F 30.1 in ENE 9.3 mph 21 mph 43.1% 0 in
17:24 71.8 °F 47.7 °F 30.1 in ENE 8.5 mph 18.5 mph 42.5% 0 in
17:29 71.8 °F 47.3 °F 30.1 in Este 8.5 mph 19 mph 42% 0 in
17:34 71.6 °F 47.7 °F 30.1 in ENE 8.5 mph 14 mph 42.4% 0 in
17:39 71.8 °F 47.3 °F 30.1 in Este 8.6 mph 15.2 mph 41.8% 0 in
17:44 71.8 °F 47.5 °F 30.1 in ENE 8.7 mph 15 mph 42% 0 in
17:49 71.8 °F 46.9 °F 30.1 in ENE 8.7 mph 17.3 mph 41.4% 0 in
17:54 72 °F 47.1 °F 30.1 in ENE 8.7 mph 17 mph 41.4% 0 in
17:59 72 °F 46.9 °F 30.1 in NE 8.6 mph 17 mph 41% 0 in
18:04 71.8 °F 46.8 °F 30.1 in ENE 8.5 mph 18.5 mph 41% 0 in
18:09 71.4 °F 46.6 °F 30.1 in Este 9.1 mph 19 mph 41% 0 in
18:14 71.4 °F 46.9 °F 30.1 in ENE 10 mph 16.1 mph 41.5% 0 in
18:19 71.8 °F 46.9 °F 30.1 in ENE 9.5 mph 17.5 mph 41.4% 0 in
18:24 71.4 °F 46.8 °F 30.1 in NE 8.7 mph 17.3 mph 41.6% 0 in
18:29 71.2 °F 46.9 °F 30.1 in NE 8.9 mph 17 mph 41.8% 0 in
18:34 71.1 °F 46.4 °F 30.1 in NE 9.2 mph 19 mph 41.3% 0 in
18:39 71.1 °F 46.4 °F 30.1 in NE 9.4 mph 18 mph 41.2% 0 in
18:44 71.2 °F 46.8 °F 30.1 in ENE 9.7 mph 16 mph 41.7% 0 in
18:49 71.2 °F 46.8 °F 30.1 in NE 9.3 mph 17.3 mph 41.7% 0 in
18:54 71.2 °F 46.9 °F 30.1 in NE 8.5 mph 17 mph 42% 0 in
18:59 71.2 °F 47.3 °F 30.1 in NE 8.5 mph 16.1 mph 42.4% 0 in
19:04 71.2 °F 47.5 °F 30.1 in NE 8.5 mph 16.1 mph 43% 0 in
19:09 71.1 °F 47.5 °F 30.1 in NE 8.3 mph 16 mph 43.1% 0 in
19:14 71.2 °F 47.7 °F 30.1 in NE 8.1 mph 17 mph 43% 0 in
19:19 71.2 °F 47.5 °F 30.1 in NE 8.3 mph 17.3 mph 43% 0 in
19:24 71.2 °F 47.7 °F 30.1 in ENE 8.5 mph 14 mph 43% 0 in
19:29 71.4 °F 47.7 °F 30.1 in NE 7.9 mph 13 mph 43% 0 in
19:34 71.4 °F 47.7 °F 30.1 in NE 6.9 mph 13 mph 42.9% 0 in
19:39 71.2 °F 47.7 °F 30.1 in ENE 6.9 mph 13 mph 43% 0 in
19:44 71.2 °F 47.7 °F 30.1 in ENE 6.9 mph 14.5 mph 43% 0 in
19:49 71.2 °F 47.7 °F 30.1 in NE 7.5 mph 15.2 mph 43% 0 in
19:54 71.1 °F 47.5 °F 30.1 in NE 8.5 mph 17.5 mph 43% 0 in
19:59 71.1 °F 47.3 °F 30.1 in NE 8.1 mph 17 mph 43% 0 in
20:04 70.9 °F 47.3 °F 30.1 in NE 7.6 mph 16.1 mph 43% 0 in
20:09 70.7 °F 47.1 °F 30.1 in NE 8 mph 16 mph 43% 0 in
20:14 70.5 °F 46.9 °F 30.1 in NE 8.5 mph 14 mph 43% 0 in
20:19 70.3 °F 46.8 °F 30.1 in ENE 8.1 mph 12.7 mph 43% 0 in
20:24 70.2 °F 46.6 °F 30.1 in ENE 7.4 mph 13.8 mph 43% 0 in
20:29 69.8 °F 46.6 °F 30.1 in ENE 7.8 mph 15 mph 43.5% 0 in
20:34 69.6 °F 47.1 °F 30.1 in ENE 8.5 mph 15 mph 44.7% 0 in
20:39 69.6 °F 47.5 °F 30.1 in ENE 7.6 mph 13 mph 45.2% 0 in
20:44 69.4 °F 47.1 °F 30.1 in NE 5.9 mph 11.8 mph 45.1% 0 in
20:49 69.1 °F 46.8 °F 30.1 in NE 6.1 mph 13.8 mph 45% 0 in
20:54 68.7 °F 46.4 °F 30.1 in ENE 6.4 mph 14 mph 44.6% 0 in
20:59 68.7 °F 44.8 °F 30.1 in ENE 6.4 mph 12.7 mph 42.4% 0 in
21:04 68.5 °F 43.9 °F 30.1 in ENE 6.4 mph 14 mph 41% 0 in
21:09 68.4 °F 43.3 °F 30.1 in ENE 6.3 mph 14 mph 40.4% 0 in
21:14 68.4 °F 43 °F 30.1 in NE 6.2 mph 11 mph 40% 0 in
21:19 68.2 °F 43.5 °F 30.1 in NE 5.8 mph 10 mph 40.9% 0 in
21:24 67.8 °F 43.3 °F 30.1 in ENE 5.2 mph 9.2 mph 41% 0 in
21:29 67.8 °F 43.9 °F 30.1 in ENE 4.8 mph 9 mph 42% 0 in
21:34 67.6 °F 43.7 °F 30.1 in ENE 4 mph 7.4 mph 42% 0 in
21:39 67.5 °F 43.7 °F 30.1 in NE 4 mph 7 mph 42% 0 in
21:44 67.3 °F 43.9 °F 30.1 in NE 4 mph 8.5 mph 42.8% 0 in
21:49 67.1 °F 44.4 °F 30.1 in NE 4.1 mph 10.4 mph 43.8% 0 in
21:54 66.9 °F 44.8 °F 30.1 in NE 4.3 mph 10 mph 44.8% 0 in
21:59 66.6 °F 45.1 °F 30.1 in NE 4.3 mph 8.1 mph 45.9% 0 in
22:04 66.4 °F 45.9 °F 30.2 in NE 4.3 mph 8.1 mph 47.5% 0 in
22:09 66.2 °F 46.4 °F 30.2 in NE 4.5 mph 8.1 mph 48.9% 0 in
22:14 66 °F 46.9 °F 30.2 in NE 4.7 mph 8.5 mph 50.3% 0 in
22:19 65.8 °F 47.5 °F 30.2 in NE 4.9 mph 9 mph 51.4% 0 in
22:24 65.7 °F 47.8 °F 30.2 in NE 5.2 mph 8.7 mph 52.6% 0 in
22:29 65.7 °F 48.4 °F 30.2 in ENE 5.2 mph 9.2 mph 53.8% 0 in
22:34 65.5 °F 48.7 °F 30.2 in NE 5.2 mph 8 mph 54.7% 0 in
22:39 65.5 °F 49.3 °F 30.2 in NE 4.6 mph 8.1 mph 55.9% 0 in
22:44 65.5 °F 49.8 °F 30.2 in NE 3.6 mph 8.1 mph 57.3% 0 in
22:49 65.1 °F 50.2 °F 30.2 in NE 4.2 mph 8.1 mph 58.4% 0 in
22:54 65.1 °F 50.7 °F 30.2 in NE 5.2 mph 9.2 mph 59.6% 0 in
22:59 65.1 °F 50.9 °F 30.2 in NE 5.2 mph 9 mph 60% 0 in
23:04 64.9 °F 50.9 °F 30.2 in NE 5.2 mph 9 mph 60% 0 in
23:09 64.9 °F 50.9 °F 30.2 in NE 4.7 mph 7.4 mph 60.4% 0 in
23:14 64.9 °F 51.3 °F 30.2 in NE 4 mph 7 mph 61% 0 in
23:19 64.9 °F 51.3 °F 30.2 in NE 4 mph 6.2 mph 61.2% 0 in
23:24 64.8 °F 51.3 °F 30.2 in NE 4 mph 6 mph 61.7% 0 in
23:29 64.8 °F 51.6 °F 30.2 in NE 3.9 mph 6 mph 62.3% 0 in
23:34 64.8 °F 51.8 °F 30.2 in NE 3.6 mph 5.2 mph 63% 0 in
23:39 64.6 °F 52 °F 30.2 in NE 3.6 mph 6.2 mph 63.5% 0 in
23:44 64.6 °F 52 °F 30.2 in NE 3.6 mph 6 mph 63.9% 0 in
23:49 64.4 °F 52 °F 30.2 in NE 3.4 mph 6 mph 64% 0 in
23:54 64.2 °F 51.8 °F 30.2 in NE 3.1 mph 6.2 mph 63.8% 0 in
23:59 64 °F 51.3 °F 30.2 in NE 3.5 mph 6 mph 63% 0 in
Murcia-Puente Tocinos, España
Compliments of Weather Underground - 3 mb

La estación de MeteoMurcia.com, publica sus datos en los siguientes proyectos:

Weather Underground PWS IMURCIAP2 Meteoclimatic www.awekas.at

W3Counter
Web Analytics